Decoded Metar for LJMB (MARIBOR in SLOVENIA) (IATA:MBX) | Meteo·Mobile Aviation Weather
aviador You're here:

LJMB Decoded Metar

MARIBOR in SLOVENIA
Report Time2018-12-19 05:30:00
UTC Time2018-12-19 05:39:42
Flight Rules ifr IFR
WindVRB at 02 kt
Visibility3000 m
Phenomena:Mist
Clouds:Scattered 007 Hf
Broken 030 Hf
Ceiling3,000 ft
Temp-5°C (ISA -18)
Dew Point-5°C (100% RH)
AAT-8.3°C
QNH1026 hPa
Density Alt-1,768 ft
Elevation869 ft
Report Wrong Elevation
Raw Report
METAR LJMB 190530Z VRB02KT 3000 BR SCT007 BKN030 M05/M05 Q1026=

Extra information for LJMB:More info

Metar Taf Metar & Taf Last 4 Metars F.Rules Stats Wind Profile Meteogram Temp Stats Airport Information Weather charts Add Link Nearby VenuesMetar ALERT Operation Metar Decoded Social comments